sensor_id;sensor_type;location;lat;lon;timestamp;pressure;altitude;pressure_sealevel;temperature;humidity
50123;BME280;36021;48.670;6.184;2023-04-30T00:00:24;99307.63;;;13.52;100.00
50123;BME280;36021;48.670;6.184;2023-04-30T00:02:50;99314.19;;;13.56;100.00
50123;BME280;36021;48.670;6.184;2023-04-30T00:05:15;99320.13;;;13.64;100.00
50123;BME280;36021;48.670;6.184;2023-04-30T00:07:41;99315.63;;;13.68;100.00
50123;BME280;36021;48.670;6.184;2023-04-30T00:10:09;99306.28;;;13.64;100.00
50123;BME280;36021;48.670;6.184;2023-04-30T00:12:35;99312.53;;;13.55;100.00
50123;BME280;36021;48.670;6.184;2023-04-30T00:15:01;99308.72;;;13.51;100.00
50123;BME280;36021;48.670;6.184;2023-04-30T00:17:27;99312.31;;;13.38;100.00
50123;BME280;36021;48.670;6.184;2023-04-30T00:19:53;99303.22;;;13.38;100.00
50123;BME280;36021;48.670;6.184;2023-04-30T00:22:18;99306.78;;;13.38;100.00
50123;BME280;36021;48.670;6.184;2023-04-30T00:24:45;99302.47;;;13.32;100.00
50123;BME280;36021;48.670;6.184;2023-04-30T00:27:11;99301.66;;;13.18;100.00
50123;BME280;36021;48.670;6.184;2023-04-30T00:29:37;99303.88;;;13.16;100.00
50123;BME280;36021;48.670;6.184;2023-04-30T00:32:03;99305.31;;;13.14;100.00
50123;BME280;36021;48.670;6.184;2023-04-30T00:34:31;99305.09;;;13.10;100.00
50123;BME280;36021;48.670;6.184;2023-04-30T00:36:57;99310.97;;;13.09;100.00
50123;BME280;36021;48.670;6.184;2023-04-30T00:39:22;99307.94;;;13.05;100.00
50123;BME280;36021;48.670;6.184;2023-04-30T00:41:48;99301.59;;;13.04;100.00
50123;BME280;36021;48.670;6.184;2023-04-30T00:44:15;99308.56;;;13.02;100.00
50123;BME280;36021;48.670;6.184;2023-04-30T00:46:40;99303.03;;;13.02;100.00
50123;BME280;36021;48.670;6.184;2023-04-30T00:49:06;99304.13;;;13.01;100.00
50123;BME280;36021;48.670;6.184;2023-04-30T00:51:33;99293.25;;;12.91;100.00
50123;BME280;36021;48.670;6.184;2023-04-30T00:53:59;99302.22;;;12.83;100.00
50123;BME280;36021;48.670;6.184;2023-04-30T00:56:26;99301.31;;;12.87;100.00
50123;BME280;36021;48.670;6.184;2023-04-30T00:58:54;99291.97;;;12.83;100.00
50123;BME280;36021;48.670;6.184;2023-04-30T01:01:25;99293.63;;;12.84;100.00
50123;BME280;36021;48.670;6.184;2023-04-30T01:03:51;99291.97;;;12.83;100.00
50123;BME280;36021;48.670;6.184;2023-04-30T01:06:16;99292.69;;;12.75;100.00
50123;BME280;36021;48.670;6.184;2023-04-30T01:08:43;99290.22;;;12.74;100.00
50123;BME280;36021;48.670;6.184;2023-04-30T01:11:11;99283.56;;;12.75;100.00
50123;BME280;36021;48.670;6.184;2023-04-30T01:16:26;99277.31;;;12.69;100.00
50123;BME280;36021;48.670;6.184;2023-04-30T01:19:01;99282.31;;;12.67;100.00
50123;BME280;36021;48.670;6.184;2023-04-30T01:21:29;99274.63;;;12.64;100.00
50123;BME280;36021;48.670;6.184;2023-04-30T01:26:52;99278.88;;;12.57;100.00
50123;BME280;36021;48.670;6.184;2023-04-30T01:29:21;99282.78;;;12.56;100.00
50123;BME280;36021;48.670;6.184;2023-04-30T01:31:49;99275.59;;;12.54;100.00
50123;BME280;36021;48.670;6.184;2023-04-30T01:34:14;99280.09;;;12.50;100.00
50123;BME280;36021;48.670;6.184;2023-04-30T01:36:45;99282.34;;;12.48;100.00
50123;BME280;36021;48.670;6.184;2023-04-30T01:42:07;99291.19;;;12.13;100.00
50123;BME280;36021;48.670;6.184;2023-04-30T01:50:12;99283.41;;;12.15;100.00
50123;BME280;36021;48.670;6.184;2023-04-30T01:55:19;99288.06;;;12.20;100.00
50123;BME280;36021;48.670;6.184;2023-04-30T01:57:56;99285.44;;;12.10;100.00
50123;BME280;36021;48.670;6.184;2023-04-30T02:00:23;99286.69;;;12.17;100.00
50123;BME280;36021;48.670;6.184;2023-04-30T02:02:49;99281.75;;;12.14;100.00
50123;BME280;36021;48.670;6.184;2023-04-30T02:05:15;99281.34;;;12.07;100.00
50123;BME280;36021;48.670;6.184;2023-04-30T02:07:42;99276.59;;;12.08;100.00
50123;BME280;36021;48.670;6.184;2023-04-30T02:10:09;99277.19;;;12.05;100.00
50123;BME280;36021;48.670;6.184;2023-04-30T02:12:36;99278.72;;;11.97;100.00
50123;BME280;36021;48.670;6.184;2023-04-30T02:15:03;99283.09;;;11.98;100.00
50123;BME280;36021;48.670;6.184;2023-04-30T02:17:29;99283.09;;;11.98;100.00
50123;BME280;36021;48.670;6.184;2023-04-30T02:19:55;99269.75;;;12.05;100.00
50123;BME280;36021;48.670;6.184;2023-04-30T02:22:21;99275.50;;;11.90;100.00
50123;BME280;36021;48.670;6.184;2023-04-30T02:24:47;99270.34;;;11.83;100.00
50123;BME280;36021;48.670;6.184;2023-04-30T02:27:12;99272.34;;;11.78;100.00
50123;BME280;36021;48.670;6.184;2023-04-30T02:29:38;99275.63;;;11.80;100.00
50123;BME280;36021;48.670;6.184;2023-04-30T02:32:03;99272.81;;;11.61;100.00
50123;BME280;36021;48.670;6.184;2023-04-30T02:34:29;99272.72;;;11.71;100.00
50123;BME280;36021;48.670;6.184;2023-04-30T02:36:54;99280.78;;;11.63;100.00
50123;BME280;36021;48.670;6.184;2023-04-30T02:39:20;99279.13;;;11.62;100.00
50123;BME280;36021;48.670;6.184;2023-04-30T02:41:45;99282.94;;;11.66;100.00
50123;BME280;36021;48.670;6.184;2023-04-30T02:44:11;99278.69;;;11.55;100.00
50123;BME280;36021;48.670;6.184;2023-04-30T02:46:36;99276.09;;;11.39;100.00
50123;BME280;36021;48.670;6.184;2023-04-30T02:49:02;99268.28;;;11.46;100.00
50123;BME280;36021;48.670;6.184;2023-04-30T02:51:27;99266.94;;;11.44;100.00
50123;BME280;36021;48.670;6.184;2023-04-30T02:53:53;99277.91;;;11.49;100.00
50123;BME280;36021;48.670;6.184;2023-04-30T02:56:19;99278.16;;;11.52;100.00
50123;BME280;36021;48.670;6.184;2023-04-30T02:58:45;99277.50;;;11.61;100.00
50123;BME280;36021;48.670;6.184;2023-04-30T03:01:11;99273.69;;;11.57;100.00
50123;BME280;36021;48.670;6.184;2023-04-30T03:03:36;99266.38;;;11.66;100.00
50123;BME280;36021;48.670;6.184;2023-04-30T03:06:03;99275.56;;;11.61;100.00
50123;BME280;36021;48.670;6.184;2023-04-30T03:08:29;99267.22;;;11.66;100.00
50123;BME280;36021;48.670;6.184;2023-04-30T03:10:56;99266.97;;;11.63;100.00
50123;BME280;36021;48.670;6.184;2023-04-30T03:13:21;99262.00;;;11.65;100.00
50123;BME280;36021;48.670;6.184;2023-04-30T03:15:55;99260.34;;;11.64;100.00
50123;BME280;36021;48.670;6.184;2023-04-30T03:18:20;99254.25;;;11.43;100.00
50123;BME280;36021;48.670;6.184;2023-04-30T03:20:47;99263.63;;;11.42;100.00
50123;BME280;36021;48.670;6.184;2023-04-30T03:23:13;99260.38;;;11.40;100.00
50123;BME280;36021;48.670;6.184;2023-04-30T03:25:39;99253.50;;;11.37;100.00
50123;BME280;36021;48.670;6.184;2023-04-30T03:28:04;99254.03;;;11.39;100.00
50123;BME280;36021;48.670;6.184;2023-04-30T03:30:30;99264.19;;;11.44;100.00
50123;BME280;36021;48.670;6.184;2023-04-30T03:32:56;99254.25;;;11.43;100.00
50123;BME280;36021;48.670;6.184;2023-04-30T03:35:21;99250.75;;;11.37;100.00
50123;BME280;36021;48.670;6.184;2023-04-30T03:37:47;99253.66;;;11.22;100.00
50123;BME280;36021;48.670;6.184;2023-04-30T03:40:12;99260.25;;;11.26;100.00
50123;BME280;36021;48.670;6.184;2023-04-30T03:42:38;99256.66;;;11.26;100.00
50123;BME280;36021;48.670;6.184;2023-04-30T03:45:03;99254.72;;;11.26;100.00
50123;BME280;36021;48.670;6.184;2023-04-30T03:47:29;99264.28;;;11.10;100.00
50123;BME280;36021;48.670;6.184;2023-04-30T03:49:54;99265.28;;;11.19;100.00
50123;BME280;36021;48.670;6.184;2023-04-30T03:52:21;99261.66;;;11.24;100.00
50123;BME280;36021;48.670;6.184;2023-04-30T03:54:47;99258.16;;;11.18;100.00
50123;BME280;36021;48.670;6.184;2023-04-30T03:57:14;99250.88;;;11.27;100.00
50123;BME280;36021;48.670;6.184;2023-04-30T03:59:40;99263.66;;;11.18;100.00
50123;BME280;36021;48.670;6.184;2023-04-30T04:02:06;99257.31;;;11.18;100.00
50123;BME280;36021;48.670;6.184;2023-04-30T04:04:32;99258.16;;;11.18;100.00
50123;BME280;36021;48.670;6.184;2023-04-30T04:06:58;99259.78;;;11.19;100.00
50123;BME280;36021;48.670;6.184;2023-04-30T04:09:23;99259.19;;;11.22;100.00
50123;BME280;36021;48.670;6.184;2023-04-30T04:11:49;99261.72;;;11.19;100.00
50123;BME280;36021;48.670;6.184;2023-04-30T04:14:15;99260.78;;;11.28;100.00
50123;BME280;36021;48.670;6.184;2023-04-30T04:16:41;99260.00;;;11.23;100.00
50123;BME280;36021;48.670;6.184;2023-04-30T04:19:07;99260.25;;;11.26;100.00
50123;BME280;36021;48.670;6.184;2023-04-30T04:21:32;99262.25;;;11.21;100.00
50123;BME280;36021;48.670;6.184;2023-04-30T04:24:01;99259.50;;;11.21;100.00
50123;BME280;36021;48.670;6.184;2023-04-30T04:26:34;99271.47;;;11.11;100.00
50123;BME280;36021;48.670;6.184;2023-04-30T04:29:01;99268.34;;;11.18;100.00
50123;BME280;36021;48.670;6.184;2023-04-30T04:31:28;99261.41;;;11.20;100.00
50123;BME280;36021;48.670;6.184;2023-04-30T04:33:53;99264.69;;;11.22;100.00
50123;BME280;36021;48.670;6.184;2023-04-30T04:36:23;99259.91;;;11.09;100.00
50123;BME280;36021;48.670;6.184;2023-04-30T04:38:49;99268.38;;;11.13;100.00
50123;BME280;36021;48.670;6.184;2023-04-30T04:41:16;99274.25;;;11.06;100.00
50123;BME280;36021;48.670;6.184;2023-04-30T04:43:43;99265.97;;;11.06;100.00
50123;BME280;36021;48.670;6.184;2023-04-30T04:46:10;99270.94;;;11.09;100.00
50123;BME280;36021;48.670;6.184;2023-04-30T04:48:36;99280.00;;;11.10;100.00
50123;BME280;36021;48.670;6.184;2023-04-30T04:51:01;99277.50;;;11.13;100.00
50123;BME280;36021;48.670;6.184;2023-04-30T04:53:28;99280.22;;;11.18;100.00
50123;BME280;36021;48.670;6.184;2023-04-30T04:55:54;99281.31;;;11.17;100.00
50123;BME280;36021;48.670;6.184;2023-04-30T04:58:22;99281.84;;;11.19;100.00
50123;BME280;36021;48.670;6.184;2023-04-30T05:00:47;99280.97;;;11.24;100.00
50123;BME280;36021;48.670;6.184;2023-04-30T05:03:13;99286.56;;;11.19;100.00
50123;BME280;36021;48.670;6.184;2023-04-30T05:05:39;99281.25;;;11.22;100.00
50123;BME280;36021;48.670;6.184;2023-04-30T05:08:05;99284.44;;;11.11;100.00
50123;BME280;36021;48.670;6.184;2023-04-30T05:10:30;99283.00;;;11.13;100.00
50123;BME280;36021;48.670;6.184;2023-04-30T05:12:56;99286.31;;;11.15;100.00
50123;BME280;36021;48.670;6.184;2023-04-30T05:15:21;99285.72;;;11.18;100.00
50123;BME280;36021;48.670;6.184;2023-04-30T05:17:47;99282.16;;;11.18;100.00
50123;BME280;36021;48.670;6.184;2023-04-30T05:20:12;99284.66;;;11.14;100.00
50123;BME280;36021;48.670;6.184;2023-04-30T05:22:38;99290.69;;;11.16;100.00
50123;BME280;36021;48.670;6.184;2023-04-30T05:25:03;99292.28;;;11.22;100.00
50123;BME280;36021;48.670;6.184;2023-04-30T05:27:29;99298.03;;;11.26;100.00
50123;BME280;36021;48.670;6.184;2023-04-30T05:29:54;99285.56;;;11.33;100.00
50123;BME280;36021;48.670;6.184;2023-04-30T05:32:21;99292.75;;;11.29;100.00
50123;BME280;36021;48.670;6.184;2023-04-30T05:34:46;99285.56;;;11.33;100.00
50123;BME280;36021;48.670;6.184;2023-04-30T05:37:12;99287.84;;;11.26;100.00
50123;BME280;36021;48.670;6.184;2023-04-30T05:39:38;99288.91;;;11.30;100.00
50123;BME280;36021;48.670;6.184;2023-04-30T05:42:04;99284.97;;;11.36;100.00
50123;BME280;36021;48.670;6.184;2023-04-30T05:44:29;99281.84;;;11.43;100.00
50123;BME280;36021;48.670;6.184;2023-04-30T05:46:55;99271.03;;;11.23;100.00
50123;BME280;36021;48.670;6.184;2023-04-30T05:49:20;99273.16;;;11.31;100.00
50123;BME280;36021;48.670;6.184;2023-04-30T05:51:46;99274.47;;;11.38;100.00
50123;BME280;36021;48.670;6.184;2023-04-30T05:54:11;99280.75;;;11.44;100.00
50123;BME280;36021;48.670;6.184;2023-04-30T05:56:38;99275.38;;;11.52;100.00
50123;BME280;36021;48.670;6.184;2023-04-30T05:59:03;99283.63;;;11.58;100.00
50123;BME280;36021;48.670;6.184;2023-04-30T06:01:29;99281.59;;;11.63;100.00
50123;BME280;36021;48.670;6.184;2023-04-30T06:03:55;99274.66;;;11.66;100.00
50123;BME280;36021;48.670;6.184;2023-04-30T06:06:20;99276.00;;;11.73;100.00
50123;BME280;36021;48.670;6.184;2023-04-30T06:08:48;99279.03;;;11.72;100.00
50123;BME280;36021;48.670;6.184;2023-04-30T06:11:13;99277.66;;;11.74;100.00
50123;BME280;36021;48.670;6.184;2023-04-30T06:13:39;99275.03;;;11.83;100.00
50123;BME280;36021;48.670;6.184;2023-04-30T06:16:05;99278.25;;;11.90;100.00
50123;BME280;36021;48.670;6.184;2023-04-30T06:18:31;99271.25;;;11.97;100.00
50123;BME280;36021;48.670;6.184;2023-04-30T06:20:56;99271.44;;;12.01;100.00
50123;BME280;36021;48.670;6.184;2023-04-30T06:23:22;99266.38;;;12.08;100.00
50123;BME280;36021;48.670;6.184;2023-04-30T06:25:48;99264.91;;;12.16;100.00
50123;BME280;36021;48.670;6.184;2023-04-30T06:28:14;99259.59;;;12.19;100.00
50123;BME280;36021;48.670;6.184;2023-04-30T06:30:40;99259.72;;;12.28;100.00
50123;BME280;36021;48.670;6.184;2023-04-30T06:33:06;99261.50;;;12.37;100.00
50123;BME280;36021;48.670;6.184;2023-04-30T06:35:31;99257.03;;;12.41;100.00
50123;BME280;36021;48.670;6.184;2023-04-30T06:37:57;99258.50;;;12.52;100.00
50123;BME280;36021;48.670;6.184;2023-04-30T06:40:22;99256.75;;;12.57;100.00
50123;BME280;36021;48.670;6.184;2023-04-30T06:42:48;99258.25;;;12.68;100.00
50123;BME280;36021;48.670;6.184;2023-04-30T06:45:13;99262.56;;;12.74;100.00
50123;BME280;36021;48.670;6.184;2023-04-30T06:47:43;99258.28;;;12.81;100.00
50123;BME280;36021;48.670;6.184;2023-04-30T06:50:10;99259.41;;;12.80;100.00
50123;BME280;36021;48.670;6.184;2023-04-30T06:52:36;99261.47;;;12.88;100.00
50123;BME280;36021;48.670;6.184;2023-04-30T06:55:02;99263.47;;;13.01;100.00
50123;BME280;36021;48.670;6.184;2023-04-30T06:57:28;99255.28;;;13.10;100.00
50123;BME280;36021;48.670;6.184;2023-04-30T06:59:54;99255.09;;;13.20;100.00
50123;BME280;36021;48.670;6.184;2023-04-30T07:02:19;99248.13;;;13.36;100.00
50123;BME280;36021;48.670;6.184;2023-04-30T07:04:45;99248.97;;;13.50;100.00
50123;BME280;36021;48.670;6.184;2023-04-30T07:07:11;99247.31;;;13.36;100.00
50123;BME280;36021;48.670;6.184;2023-04-30T07:09:36;99249.38;;;13.44;100.00
50123;BME280;36021;48.670;6.184;2023-04-30T07:12:02;99249.16;;;13.54;100.00
50123;BME280;36021;48.670;6.184;2023-04-30T07:14:28;99235.19;;;13.59;100.00
50123;BME280;36021;48.670;6.184;2023-04-30T07:16:53;99246.47;;;13.63;100.00
50123;BME280;36021;48.670;6.184;2023-04-30T07:19:19;99248.22;;;13.72;100.00
50123;BME280;36021;48.670;6.184;2023-04-30T07:21:44;99252.63;;;13.87;100.00
50123;BME280;36021;48.670;6.184;2023-04-30T07:24:10;99262.22;;;14.03;100.00
50123;BME280;36021;48.670;6.184;2023-04-30T07:26:37;99254.41;;;14.05;100.00
50123;BME280;36021;48.670;6.184;2023-04-30T07:29:02;99266.06;;;14.29;100.00
50123;BME280;36021;48.670;6.184;2023-04-30T07:31:28;99264.25;;;14.47;100.00
50123;BME280;36021;48.670;6.184;2023-04-30T07:33:54;99261.63;;;14.64;100.00
50123;BME280;36021;48.670;6.184;2023-04-30T07:36:20;99257.09;;;14.68;100.00
50123;BME280;36021;48.670;6.184;2023-04-30T07:38:45;99258.81;;;14.86;100.00
50123;BME280;36021;48.670;6.184;2023-04-30T07:41:11;99271.13;;;14.94;100.00
50123;BME280;36021;48.670;6.184;2023-04-30T07:43:37;99270.22;;;15.07;100.00
50123;BME280;36021;48.670;6.184;2023-04-30T07:46:04;99268.84;;;15.27;100.00
50123;BME280;36021;48.670;6.184;2023-04-30T07:48:29;99272.00;;;15.34;100.00
50123;BME280;36021;48.670;6.184;2023-04-30T07:50:55;99268.06;;;15.35;100.00
50123;BME280;36021;48.670;6.184;2023-04-30T07:53:22;99268.06;;;15.35;100.00
50123;BME280;36021;48.670;6.184;2023-04-30T07:55:47;99274.09;;;15.68;100.00
50123;BME280;36021;48.670;6.184;2023-04-30T07:58:13;99276.09;;;15.76;100.00
50123;BME280;36021;48.670;6.184;2023-04-30T08:00:39;99263.97;;;15.72;100.00
50123;BME280;36021;48.670;6.184;2023-04-30T08:03:05;99267.88;;;15.71;100.00
50123;BME280;36021;48.670;6.184;2023-04-30T08:05:31;99258.94;;;15.74;100.00
50123;BME280;36021;48.670;6.184;2023-04-30T08:07:57;99271.88;;;15.87;100.00
50123;BME280;36021;48.670;6.184;2023-04-30T08:10:22;99262.69;;;15.78;100.00
50123;BME280;36021;48.670;6.184;2023-04-30T08:12:50;99259.81;;;16.00;100.00
50123;BME280;36021;48.670;6.184;2023-04-30T08:15:18;99258.69;;;16.09;100.00
50123;BME280;36021;48.670;6.184;2023-04-30T08:17:47;99264.22;;;16.18;100.00
50123;BME280;36021;48.670;6.184;2023-04-30T08:20:13;99258.50;;;16.40;100.00
50123;BME280;36021;48.670;6.184;2023-04-30T08:22:38;99260.81;;;16.47;100.00
50123;BME280;36021;48.670;6.184;2023-04-30T08:25:05;99257.72;;;16.57;100.00
50123;BME280;36021;48.670;6.184;2023-04-30T08:27:30;99254.91;;;16.65;100.00
50123;BME280;36021;48.670;6.184;2023-04-30T08:29:56;99266.84;;;16.92;100.00
50123;BME280;36021;48.670;6.184;2023-04-30T08:32:22;99265.03;;;16.96;100.00
50123;BME280;36021;48.670;6.184;2023-04-30T08:34:47;99264.38;;;16.99;100.00
50123;BME280;36021;48.670;6.184;2023-04-30T08:37:13;99260.66;;;16.78;100.00
50123;BME280;36021;48.670;6.184;2023-04-30T08:39:38;99263.75;;;16.76;100.00
50123;BME280;36021;48.670;6.184;2023-04-30T08:42:06;99261.00;;;16.67;100.00
50123;BME280;36021;48.670;6.184;2023-04-30T08:44:32;99262.47;;;16.56;100.00
50123;BME280;36021;48.670;6.184;2023-04-30T08:47:00;99258.72;;;16.61;100.00
50123;BME280;36021;48.670;6.184;2023-04-30T08:49:27;99265.25;;;16.56;100.00
50123;BME280;36021;48.670;6.184;2023-04-30T08:51:56;99268.84;;;16.57;100.00
50123;BME280;36021;48.670;6.184;2023-04-30T08:54:24;99256.41;;;16.72;100.00
50123;BME280;36021;48.670;6.184;2023-04-30T08:56:51;99259.16;;;16.89;100.00
50123;BME280;36021;48.670;6.184;2023-04-30T08:59:16;99255.84;;;17.04;100.00
50123;BME280;36021;48.670;6.184;2023-04-30T09:01:42;99254.56;;;17.01;100.00
50123;BME280;36021;48.670;6.184;2023-04-30T09:04:08;99256.31;;;17.14;100.00
50123;BME280;36021;48.670;6.184;2023-04-30T09:06:33;99257.41;;;17.31;100.00
50123;BME280;36021;48.670;6.184;2023-04-30T09:09:13;99244.88;;;17.45;100.00
50123;BME280;36021;48.670;6.184;2023-04-30T09:11:39;99254.19;;;17.58;100.00
50123;BME280;36021;48.670;6.184;2023-04-30T09:14:05;99258.09;;;17.65;100.00
50123;BME280;36021;48.670;6.184;2023-04-30T09:16:47;99253.66;;;17.64;100.00
50123;BME280;36021;48.670;6.184;2023-04-30T09:21:47;99241.44;;;17.57;100.00
50123;BME280;36021;48.670;6.184;2023-04-30T09:24:13;99241.25;;;17.53;100.00
50123;BME280;36021;48.670;6.184;2023-04-30T09:26:40;99249.31;;;17.46;100.00
50123;BME280;36021;48.670;6.184;2023-04-30T09:29:05;99240.78;;;17.81;100.00
50123;BME280;36021;48.670;6.184;2023-04-30T09:31:38;99241.81;;;17.76;100.00
50123;BME280;36021;48.670;6.184;2023-04-30T09:34:03;99247.16;;;17.90;100.00
50123;BME280;36021;48.670;6.184;2023-04-30T09:36:29;99247.13;;;17.60;100.00
50123;BME280;36021;48.670;6.184;2023-04-30T09:38:56;99241.47;;;17.78;100.00
50123;BME280;36021;48.670;6.184;2023-04-30T09:41:31;99235.25;;;18.01;100.00
50123;BME280;36021;48.670;6.184;2023-04-30T09:43:58;99253.22;;;18.12;100.00
50123;BME280;36021;48.670;6.184;2023-04-30T09:46:30;99233.59;;;17.80;100.00
50123;BME280;36021;48.670;6.184;2023-04-30T09:48:58;99240.50;;;18.03;100.00
50123;BME280;36021;48.670;6.184;2023-04-30T09:51:24;99237.78;;;18.15;100.00
50123;BME280;36021;48.670;6.184;2023-04-30T09:53:51;99231.91;;;18.08;100.00
50123;BME280;36021;48.670;6.184;2023-04-30T09:56:21;99228.38;;;17.99;100.00
50123;BME280;36021;48.670;6.184;2023-04-30T09:58:56;99228.16;;;18.04;100.00
50123;BME280;36021;48.670;6.184;2023-04-30T10:01:25;99227.03;;;18.05;100.00
50123;BME280;36021;48.670;6.184;2023-04-30T10:03:52;99232.25;;;18.27;100.00
50123;BME280;36021;48.670;6.184;2023-04-30T10:06:17;99228.88;;;18.21;100.00
50123;BME280;36021;48.670;6.184;2023-04-30T10:08:50;99217.34;;;18.23;100.00
50123;BME280;36021;48.670;6.184;2023-04-30T10:11:19;99229.66;;;18.43;100.00
50123;BME280;36021;48.670;6.184;2023-04-30T10:13:53;99225.03;;;18.67;100.00
50123;BME280;36021;48.670;6.184;2023-04-30T10:18:51;99222.31;;;18.92;100.00
50123;BME280;36021;48.670;6.184;2023-04-30T10:21:19;99210.94;;;18.97;100.00
50123;BME280;36021;48.670;6.184;2023-04-30T10:23:46;99227.97;;;19.28;100.00
50123;BME280;36021;48.670;6.184;2023-04-30T10:26:13;99226.41;;;19.51;100.00
50123;BME280;36021;48.670;6.184;2023-04-30T10:28:42;99223.16;;;19.49;100.00
50123;BME280;36021;48.670;6.184;2023-04-30T10:31:07;99221.63;;;19.52;100.00
50123;BME280;36021;48.670;6.184;2023-04-30T10:36:02;99215.66;;;19.90;100.00
50123;BME280;36021;48.670;6.184;2023-04-30T10:38:30;99217.66;;;19.89;100.00
50123;BME280;36021;48.670;6.184;2023-04-30T10:41:00;99203.28;;;20.03;100.00
50123;BME280;36021;48.670;6.184;2023-04-30T10:43:26;99196.28;;;20.09;100.00
50123;BME280;36021;48.670;6.184;2023-04-30T10:45:54;99206.06;;;20.03;100.00
50123;BME280;36021;48.670;6.184;2023-04-30T10:48:21;99202.38;;;19.99;100.00
50123;BME280;36021;48.670;6.184;2023-04-30T10:50:54;99199.59;;;19.99;100.00
50123;BME280;36021;48.670;6.184;2023-04-30T10:53:20;99188.16;;;19.92;100.00
50123;BME280;36021;48.670;6.184;2023-04-30T10:55:47;99189.72;;;20.17;100.00
50123;BME280;36021;48.670;6.184;2023-04-30T11:00:50;99190.28;;;20.62;100.00
50123;BME280;36021;48.670;6.184;2023-04-30T11:03:15;99195.44;;;20.33;100.00
50123;BME280;36021;48.670;6.184;2023-04-30T11:05:42;99186.06;;;20.41;100.00
50123;BME280;36021;48.670;6.184;2023-04-30T11:08:12;99184.78;;;20.26;100.00
50123;BME280;36021;48.670;6.184;2023-04-30T11:10:47;99184.59;;;20.19;100.00
50123;BME280;36021;48.670;6.184;2023-04-30T11:13:20;99188.31;;;20.35;100.00
50123;BME280;36021;48.670;6.184;2023-04-30T11:15:46;99191.56;;;20.37;100.00
50123;BME280;36021;48.670;6.184;2023-04-30T11:18:12;99184.03;;;20.53;100.00
50123;BME280;36021;48.670;6.184;2023-04-30T11:20:38;99183.53;;;20.63;100.00
50123;BME280;36021;48.670;6.184;2023-04-30T11:23:14;99178.63;;;20.60;100.00
50123;BME280;36021;48.670;6.184;2023-04-30T11:25:40;99177.63;;;20.53;100.00
50123;BME280;36021;48.670;6.184;2023-04-30T11:28:07;99174.47;;;20.54;100.00
50123;BME280;36021;48.670;6.184;2023-04-30T11:30:33;99177.91;;;20.63;100.00
50123;BME280;36021;48.670;6.184;2023-04-30T11:32:59;99180.28;;;20.61;100.00
50123;BME280;36021;48.670;6.184;2023-04-30T11:35:24;99176.19;;;20.19;100.00
50123;BME280;36021;48.670;6.184;2023-04-30T11:37:53;99182.72;;;20.23;100.00
50123;BME280;36021;48.670;6.184;2023-04-30T11:40:20;99180.81;;;20.39;100.00
50123;BME280;36021;48.670;6.184;2023-04-30T11:42:46;99177.28;;;20.54;100.00
50123;BME280;36021;48.670;6.184;2023-04-30T11:45:13;99173.44;;;20.47;100.00
50123;BME280;36021;48.670;6.184;2023-04-30T11:47:51;99173.38;;;20.19;100.00
50123;BME280;36021;48.670;6.184;2023-04-30T11:50:21;99167.09;;;20.22;100.00
50123;BME280;36021;48.670;6.184;2023-04-30T11:52:53;99167.34;;;20.17;100.00
50123;BME280;36021;48.670;6.184;2023-04-30T11:55:20;99168.19;;;20.05;100.00
50123;BME280;36021;48.670;6.184;2023-04-30T11:57:46;99161.50;;;20.22;100.00
50123;BME280;36021;48.670;6.184;2023-04-30T12:00:17;99160.59;;;20.18;100.00
50123;BME280;36021;48.670;6.184;2023-04-30T12:02:43;99160.50;;;20.42;100.00
50123;BME280;36021;48.670;6.184;2023-04-30T12:05:16;99153.34;;;20.57;100.00
50123;BME280;36021;48.670;6.184;2023-04-30T12:07:49;99160.13;;;20.28;100.00
50123;BME280;36021;48.670;6.184;2023-04-30T12:10:15;99153.81;;;20.31;100.00
50123;BME280;36021;48.670;6.184;2023-04-30T12:12:44;99154.38;;;20.52;100.00
50123;BME280;36021;48.670;6.184;2023-04-30T12:15:10;99146.69;;;20.93;100.00
50123;BME280;36021;48.670;6.184;2023-04-30T12:17:35;99152.41;;;20.96;100.00
50123;BME280;36021;48.670;6.184;2023-04-30T12:20:01;99159.34;;;20.87;100.00
50123;BME280;36021;48.670;6.184;2023-04-30T12:22:27;99159.50;;;20.35;100.00
50123;BME280;36021;48.670;6.184;2023-04-30T12:24:53;99157.25;;;20.40;100.00
50123;BME280;36021;48.670;6.184;2023-04-30T12:27:20;99155.63;;;20.39;100.00
50123;BME280;36021;48.670;6.184;2023-04-30T12:29:46;99151.25;;;20.54;100.00
50123;BME280;36021;48.670;6.184;2023-04-30T12:32:13;99147.31;;;20.70;100.00
50123;BME280;36021;48.670;6.184;2023-04-30T12:34:43;99146.97;;;21.03;100.00
50123;BME280;36021;48.670;6.184;2023-04-30T12:37:08;99146.72;;;21.55;100.00
50123;BME280;36021;48.670;6.184;2023-04-30T12:39:34;99140.03;;;22.14;96.01
50123;BME280;36021;48.670;6.184;2023-04-30T12:42:01;99140.09;;;22.56;92.72
50123;BME280;36021;48.670;6.184;2023-04-30T12:44:27;99144.88;;;23.39;90.09
50123;BME280;36021;48.670;6.184;2023-04-30T12:46:55;99145.38;;;24.23;82.04
50123;BME280;36021;48.670;6.184;2023-04-30T12:49:22;99137.03;;;24.67;76.82
50123;BME280;36021;48.670;6.184;2023-04-30T12:51:49;99142.13;;;24.88;73.32
50123;BME280;36021;48.670;6.184;2023-04-30T12:54:14;99141.84;;;25.44;72.07
50123;BME280;36021;48.670;6.184;2023-04-30T12:57:03;99133.69;;;25.32;70.78
50123;BME280;36021;48.670;6.184;2023-04-30T12:59:32;99138.34;;;25.58;66.02
50123;BME280;36021;48.670;6.184;2023-04-30T13:02:08;99142.41;;;25.20;70.47
50123;BME280;36021;48.670;6.184;2023-04-30T13:04:34;99131.44;;;25.52;68.08
50123;BME280;36021;48.670;6.184;2023-04-30T13:07:01;99132.75;;;25.21;67.10
50123;BME280;36021;48.670;6.184;2023-04-30T13:09:28;99137.66;;;24.83;67.96
50123;BME280;36021;48.670;6.184;2023-04-30T13:11:54;99136.88;;;25.30;66.54
50123;BME280;36021;48.670;6.184;2023-04-30T13:14:20;99128.84;;;25.83;64.82